Shalimar, FL (32579)

9:13 PM CDT on June 02, 2015 (GMT -0500)
Lake Lorraine Estates | | Change Station
CLOSE
Current Station
Personal Weather Station
Location: Shalimar, FL
Elevation: 43 ft
Nearby Weather Stations

Elev 43 ft 30.44 °N, 86.56 °W | Updated 10 seconds ago

Partly Cloudy
Partly Cloudy
75.5 °F
Feels Like 75 °F
N
0.0
Wind Variable Wind from SW
Gusts 0.0 mph

Today
High -- | Low -- °F
--% Chance of Precip.
Yesterday
High -- | Low -- °F
Precip. -- in
5:44 AM 7:44 PM
Full, 100% visible
Pressure 29.93 in
Visibility 10.0 miles
Clouds Few 3000 ft
Mostly Cloudy 25000 ft
Heat Index 75 °F
Dew Point 72 °F
Humidity 90%
Rainfall 0.00 in
Snow Depth Not available.
UV 0 out of 12
Pollen 4.00 out of 12
Air Quality Not available.
Flu Activity Sporadic
METAR KVPS 030155Z 00000KT 10SM FEW030 BKN250 24/22 A2992 RMK AO2A SLP133 T02400219 $

More Conditions Fewer Conditions

Pressure 29.93 in
Visibility 10.0 miles
Clouds Few 3000 ft
Mostly Cloudy 25000 ft
Heat Index 75 °F
Dew Point 72 °F
Humidity 90%
Rainfall 0.00 in
Snow Depth Not available.
UV 0 out of 12
Pollen 4.00 out of 12
Air Quality Not available.
Flu Activity Sporadic
METAR KVPS 030155Z 00000KT 10SM FEW030 BKN250 24/22 A2992 RMK AO2A SLP133 T02400219 $

More Conditions Fewer Conditions

10-Day Weather Forecast

×

Almanac

Astronomy

Jun. 02, 2015 Rise Set
Actual Time
Civil Twilight
Nautical Twilight
Astronomical Twilight
Moon
Length of Visible Light
Length of Day
Tomorrow will be .
, % of the Moon is Illuminated

Today's Extremes

State Highs State Lows

Community

WunderPhotos

Upload Photos

1,826,108 photos uploaded!

WunderBlogs® & News

Nearby

Air Quality

  Air Quality AQ Index Pollutant
Not available.

Snow Depth

Station Depth Elevation

Earthquake Activity

City Distance Mag. Time & Date
Minimum magnitude displayed is 2.5.

Coastal Water Temperatures

Place Temperature

Stations

Nearby Weather Stations

Station Location Temp. Windchill Dew Point Humidity Wind Precip. Elev Updated Type